sensor_id;sensor_type;location;lat;lon;timestamp;P1;durP1;ratioP1;P2;durP2;ratioP2
24034;SDS011;12242;50.952;4.678;2022-10-16T00:01:39;3.45;;;0.75;;
24034;SDS011;12242;50.952;4.678;2022-10-16T00:04:08;1.30;;;0.60;;
24034;SDS011;12242;50.952;4.678;2022-10-16T00:06:36;1.63;;;0.70;;
24034;SDS011;12242;50.952;4.678;2022-10-16T00:09:08;1.60;;;0.60;;
24034;SDS011;12242;50.952;4.678;2022-10-16T00:11:37;3.00;;;0.60;;
24034;SDS011;12242;50.952;4.678;2022-10-16T00:14:08;2.42;;;0.80;;
24034;SDS011;12242;50.952;4.678;2022-10-16T00:16:40;2.78;;;0.70;;
24034;SDS011;12242;50.952;4.678;2022-10-16T00:19:07;1.00;;;0.40;;
24034;SDS011;12242;50.952;4.678;2022-10-16T00:21:36;1.23;;;0.50;;
24034;SDS011;12242;50.952;4.678;2022-10-16T00:24:09;1.33;;;0.50;;
24034;SDS011;12242;50.952;4.678;2022-10-16T00:26:37;2.83;;;0.70;;
24034;SDS011;12242;50.952;4.678;2022-10-16T00:29:06;1.55;;;0.60;;
24034;SDS011;12242;50.952;4.678;2022-10-16T00:31:33;1.17;;;0.43;;
24034;SDS011;12242;50.952;4.678;2022-10-16T00:34:01;1.50;;;0.47;;
24034;SDS011;12242;50.952;4.678;2022-10-16T00:36:29;1.50;;;0.40;;
24034;SDS011;12242;50.952;4.678;2022-10-16T00:38:58;1.50;;;0.40;;
24034;SDS011;12242;50.952;4.678;2022-10-16T00:41:32;1.30;;;0.43;;
24034;SDS011;12242;50.952;4.678;2022-10-16T00:44:03;0.85;;;0.40;;
24034;SDS011;12242;50.952;4.678;2022-10-16T00:46:50;1.50;;;0.50;;
24034;SDS011;12242;50.952;4.678;2022-10-16T00:49:18;0.63;;;0.40;;
24034;SDS011;12242;50.952;4.678;2022-10-16T00:51:50;0.75;;;0.45;;
24034;SDS011;12242;50.952;4.678;2022-10-16T00:54:25;0.90;;;0.43;;
24034;SDS011;12242;50.952;4.678;2022-10-16T00:56:57;1.23;;;0.40;;
24034;SDS011;12242;50.952;4.678;2022-10-16T01:01:58;3.30;;;0.57;;
24034;SDS011;12242;50.952;4.678;2022-10-16T01:04:30;1.45;;;0.57;;
24034;SDS011;12242;50.952;4.678;2022-10-16T01:07:12;0.98;;;0.40;;
24034;SDS011;12242;50.952;4.678;2022-10-16T01:18:23;1.08;;;0.55;;
24034;SDS011;12242;50.952;4.678;2022-10-16T01:21:08;1.02;;;0.40;;
24034;SDS011;12242;50.952;4.678;2022-10-16T01:27:12;1.63;;;0.60;;
24034;SDS011;12242;50.952;4.678;2022-10-16T01:30:32;1.33;;;0.52;;
24034;SDS011;12242;50.952;4.678;2022-10-16T01:32:59;1.75;;;0.50;;
24034;SDS011;12242;50.952;4.678;2022-10-16T01:35:47;2.00;;;0.50;;
24034;SDS011;12242;50.952;4.678;2022-10-16T01:38:33;1.88;;;0.80;;
24034;SDS011;12242;50.952;4.678;2022-10-16T01:41:08;2.83;;;0.50;;
24034;SDS011;12242;50.952;4.678;2022-10-16T01:43:46;0.80;;;0.40;;
24034;SDS011;12242;50.952;4.678;2022-10-16T01:46:20;1.85;;;0.40;;
24034;SDS011;12242;50.952;4.678;2022-10-16T01:48:51;4.47;;;0.52;;
24034;SDS011;12242;50.952;4.678;2022-10-16T01:51:20;1.10;;;0.60;;
24034;SDS011;12242;50.952;4.678;2022-10-16T01:53:53;1.73;;;0.40;;
24034;SDS011;12242;50.952;4.678;2022-10-16T01:56:24;0.82;;;0.30;;
24034;SDS011;12242;50.952;4.678;2022-10-16T01:58:53;0.90;;;0.40;;
24034;SDS011;12242;50.952;4.678;2022-10-16T02:01:31;1.40;;;0.50;;
24034;SDS011;12242;50.952;4.678;2022-10-16T02:04:04;1.63;;;0.60;;
24034;SDS011;12242;50.952;4.678;2022-10-16T02:06:36;2.42;;;0.80;;
24034;SDS011;12242;50.952;4.678;2022-10-16T02:09:06;1.05;;;0.57;;
24034;SDS011;12242;50.952;4.678;2022-10-16T02:11:35;2.08;;;0.73;;
24034;SDS011;12242;50.952;4.678;2022-10-16T02:14:04;3.22;;;0.63;;
24034;SDS011;12242;50.952;4.678;2022-10-16T02:16:37;1.10;;;0.60;;
24034;SDS011;12242;50.952;4.678;2022-10-16T02:19:07;3.00;;;0.60;;
24034;SDS011;12242;50.952;4.678;2022-10-16T02:21:57;3.05;;;1.00;;
24034;SDS011;12242;50.952;4.678;2022-10-16T02:24:34;3.20;;;0.60;;
24034;SDS011;12242;50.952;4.678;2022-10-16T02:27:11;1.23;;;0.65;;
24034;SDS011;12242;50.952;4.678;2022-10-16T02:29:47;2.00;;;0.60;;
24034;SDS011;12242;50.952;4.678;2022-10-16T02:32:21;1.80;;;0.70;;
24034;SDS011;12242;50.952;4.678;2022-10-16T02:34:51;4.40;;;0.80;;
24034;SDS011;12242;50.952;4.678;2022-10-16T02:37:19;1.55;;;0.77;;
24034;SDS011;12242;50.952;4.678;2022-10-16T02:39:47;1.30;;;0.50;;
24034;SDS011;12242;50.952;4.678;2022-10-16T02:42:15;2.05;;;0.68;;
24034;SDS011;12242;50.952;4.678;2022-10-16T02:44:46;3.28;;;0.70;;
24034;SDS011;12242;50.952;4.678;2022-10-16T02:47:16;1.52;;;0.60;;
24034;SDS011;12242;50.952;4.678;2022-10-16T02:49:46;3.50;;;0.88;;
24034;SDS011;12242;50.952;4.678;2022-10-16T02:52:15;2.22;;;0.73;;
24034;SDS011;12242;50.952;4.678;2022-10-16T02:54:43;2.60;;;0.75;;
24034;SDS011;12242;50.952;4.678;2022-10-16T02:57:12;3.72;;;0.75;;
24034;SDS011;12242;50.952;4.678;2022-10-16T02:59:40;1.10;;;0.40;;
24034;SDS011;12242;50.952;4.678;2022-10-16T03:02:07;2.05;;;0.73;;
24034;SDS011;12242;50.952;4.678;2022-10-16T03:04:35;2.97;;;0.90;;
24034;SDS011;12242;50.952;4.678;2022-10-16T03:07:02;2.22;;;0.75;;
24034;SDS011;12242;50.952;4.678;2022-10-16T03:09:30;1.85;;;0.63;;
24034;SDS011;12242;50.952;4.678;2022-10-16T03:12:00;2.13;;;0.57;;
24034;SDS011;12242;50.952;4.678;2022-10-16T03:14:28;2.10;;;0.73;;
24034;SDS011;12242;50.952;4.678;2022-10-16T03:16:55;2.83;;;0.73;;
24034;SDS011;12242;50.952;4.678;2022-10-16T03:19:23;1.50;;;0.57;;
24034;SDS011;12242;50.952;4.678;2022-10-16T03:21:51;1.67;;;0.77;;
24034;SDS011;12242;50.952;4.678;2022-10-16T03:24:20;2.28;;;0.73;;
24034;SDS011;12242;50.952;4.678;2022-10-16T03:26:47;2.10;;;0.70;;
24034;SDS011;12242;50.952;4.678;2022-10-16T03:29:15;3.17;;;0.93;;
24034;SDS011;12242;50.952;4.678;2022-10-16T03:31:45;2.00;;;0.60;;
24034;SDS011;12242;50.952;4.678;2022-10-16T03:34:15;2.00;;;0.90;;
24034;SDS011;12242;50.952;4.678;2022-10-16T03:36:42;2.25;;;0.70;;
24034;SDS011;12242;50.952;4.678;2022-10-16T03:39:13;2.35;;;0.80;;
24034;SDS011;12242;50.952;4.678;2022-10-16T03:41:43;2.00;;;0.80;;
24034;SDS011;12242;50.952;4.678;2022-10-16T03:44:10;1.10;;;0.73;;
24034;SDS011;12242;50.952;4.678;2022-10-16T03:46:38;2.30;;;0.80;;
24034;SDS011;12242;50.952;4.678;2022-10-16T03:49:05;3.30;;;0.80;;
24034;SDS011;12242;50.952;4.678;2022-10-16T03:51:35;2.17;;;0.80;;
24034;SDS011;12242;50.952;4.678;2022-10-16T03:54:03;2.40;;;0.90;;
24034;SDS011;12242;50.952;4.678;2022-10-16T03:56:30;3.38;;;0.90;;
24034;SDS011;12242;50.952;4.678;2022-10-16T03:58:58;3.67;;;0.98;;
24034;SDS011;12242;50.952;4.678;2022-10-16T04:01:25;1.73;;;0.60;;
24034;SDS011;12242;50.952;4.678;2022-10-16T04:03:55;1.15;;;0.60;;
24034;SDS011;12242;50.952;4.678;2022-10-16T04:06:22;2.08;;;0.63;;
24034;SDS011;12242;50.952;4.678;2022-10-16T04:08:49;1.30;;;0.70;;
24034;SDS011;12242;50.952;4.678;2022-10-16T04:11:19;1.67;;;0.77;;
24034;SDS011;12242;50.952;4.678;2022-10-16T04:13:51;1.98;;;0.75;;
24034;SDS011;12242;50.952;4.678;2022-10-16T04:16:20;2.95;;;0.80;;
24034;SDS011;12242;50.952;4.678;2022-10-16T04:18:48;3.30;;;0.90;;
24034;SDS011;12242;50.952;4.678;2022-10-16T04:21:15;2.80;;;0.70;;
24034;SDS011;12242;50.952;4.678;2022-10-16T04:23:43;1.33;;;0.50;;
24034;SDS011;12242;50.952;4.678;2022-10-16T04:26:12;1.50;;;0.70;;
24034;SDS011;12242;50.952;4.678;2022-10-16T04:28:40;3.90;;;0.70;;
24034;SDS011;12242;50.952;4.678;2022-10-16T04:31:07;2.78;;;0.90;;
24034;SDS011;12242;50.952;4.678;2022-10-16T04:33:35;2.05;;;0.82;;
24034;SDS011;12242;50.952;4.678;2022-10-16T04:36:02;1.63;;;0.80;;
24034;SDS011;12242;50.952;4.678;2022-10-16T04:38:30;1.90;;;0.80;;
24034;SDS011;12242;50.952;4.678;2022-10-16T04:41:02;2.40;;;0.93;;
24034;SDS011;12242;50.952;4.678;2022-10-16T04:43:30;4.78;;;0.57;;
24034;SDS011;12242;50.952;4.678;2022-10-16T04:46:01;2.30;;;0.90;;
24034;SDS011;12242;50.952;4.678;2022-10-16T04:48:31;5.07;;;1.02;;
24034;SDS011;12242;50.952;4.678;2022-10-16T04:50:59;2.50;;;0.88;;
24034;SDS011;12242;50.952;4.678;2022-10-16T04:53:26;6.10;;;0.82;;
24034;SDS011;12242;50.952;4.678;2022-10-16T04:55:53;1.17;;;0.65;;
24034;SDS011;12242;50.952;4.678;2022-10-16T04:58:21;3.47;;;1.00;;
24034;SDS011;12242;50.952;4.678;2022-10-16T05:00:50;2.78;;;0.80;;
24034;SDS011;12242;50.952;4.678;2022-10-16T05:03:17;5.07;;;1.10;;
24034;SDS011;12242;50.952;4.678;2022-10-16T05:05:45;2.30;;;0.77;;
24034;SDS011;12242;50.952;4.678;2022-10-16T05:08:13;2.13;;;0.70;;
24034;SDS011;12242;50.952;4.678;2022-10-16T05:10:44;1.83;;;0.73;;
24034;SDS011;12242;50.952;4.678;2022-10-16T05:13:11;2.45;;;1.10;;
24034;SDS011;12242;50.952;4.678;2022-10-16T05:15:41;2.13;;;0.93;;
24034;SDS011;12242;50.952;4.678;2022-10-16T05:18:09;2.28;;;0.70;;
24034;SDS011;12242;50.952;4.678;2022-10-16T05:20:38;3.35;;;0.95;;
24034;SDS011;12242;50.952;4.678;2022-10-16T05:23:10;1.30;;;0.70;;
24034;SDS011;12242;50.952;4.678;2022-10-16T05:25:40;2.03;;;0.90;;
24034;SDS011;12242;50.952;4.678;2022-10-16T05:28:07;3.67;;;0.73;;
24034;SDS011;12242;50.952;4.678;2022-10-16T05:30:36;4.30;;;1.20;;
24034;SDS011;12242;50.952;4.678;2022-10-16T05:33:04;3.75;;;0.90;;
24034;SDS011;12242;50.952;4.678;2022-10-16T05:35:32;2.80;;;1.00;;
24034;SDS011;12242;50.952;4.678;2022-10-16T05:38:03;4.07;;;1.10;;
24034;SDS011;12242;50.952;4.678;2022-10-16T05:40:30;2.03;;;1.00;;
24034;SDS011;12242;50.952;4.678;2022-10-16T05:42:57;3.13;;;1.05;;
24034;SDS011;12242;50.952;4.678;2022-10-16T05:45:28;4.05;;;1.00;;
24034;SDS011;12242;50.952;4.678;2022-10-16T05:47:55;2.47;;;1.00;;
24034;SDS011;12242;50.952;4.678;2022-10-16T05:50:22;2.38;;;1.00;;
24034;SDS011;12242;50.952;4.678;2022-10-16T05:52:55;2.83;;;1.00;;
24034;SDS011;12242;50.952;4.678;2022-10-16T05:55:25;2.97;;;1.00;;
24034;SDS011;12242;50.952;4.678;2022-10-16T05:57:54;6.50;;;1.00;;
24034;SDS011;12242;50.952;4.678;2022-10-16T06:00:21;2.05;;;0.88;;
24034;SDS011;12242;50.952;4.678;2022-10-16T06:02:48;3.53;;;0.90;;
24034;SDS011;12242;50.952;4.678;2022-10-16T06:05:16;5.82;;;1.05;;
24034;SDS011;12242;50.952;4.678;2022-10-16T06:07:43;2.90;;;0.95;;
24034;SDS011;12242;50.952;4.678;2022-10-16T06:10:10;2.72;;;1.00;;
24034;SDS011;12242;50.952;4.678;2022-10-16T06:12:37;2.97;;;0.88;;
24034;SDS011;12242;50.952;4.678;2022-10-16T06:15:05;2.50;;;1.10;;
24034;SDS011;12242;50.952;4.678;2022-10-16T06:17:32;2.03;;;1.02;;
24034;SDS011;12242;50.952;4.678;2022-10-16T06:20:00;1.98;;;0.88;;
24034;SDS011;12242;50.952;4.678;2022-10-16T06:22:27;4.85;;;0.90;;
24034;SDS011;12242;50.952;4.678;2022-10-16T06:24:54;1.55;;;0.80;;
24034;SDS011;12242;50.952;4.678;2022-10-16T06:27:21;2.10;;;1.00;;
24034;SDS011;12242;50.952;4.678;2022-10-16T06:29:49;3.85;;;1.15;;
24034;SDS011;12242;50.952;4.678;2022-10-16T06:32:19;3.60;;;0.90;;
24034;SDS011;12242;50.952;4.678;2022-10-16T06:34:49;4.05;;;1.20;;
24034;SDS011;12242;50.952;4.678;2022-10-16T06:37:16;4.15;;;0.90;;
24034;SDS011;12242;50.952;4.678;2022-10-16T06:39:46;2.50;;;0.93;;
24034;SDS011;12242;50.952;4.678;2022-10-16T06:42:13;2.08;;;0.90;;
24034;SDS011;12242;50.952;4.678;2022-10-16T06:44:40;3.40;;;1.10;;
24034;SDS011;12242;50.952;4.678;2022-10-16T06:47:08;2.20;;;0.93;;
24034;SDS011;12242;50.952;4.678;2022-10-16T06:49:35;3.10;;;1.08;;
24034;SDS011;12242;50.952;4.678;2022-10-16T06:52:05;4.88;;;0.93;;
24034;SDS011;12242;50.952;4.678;2022-10-16T06:54:34;2.30;;;0.95;;
24034;SDS011;12242;50.952;4.678;2022-10-16T06:57:08;5.15;;;1.15;;
24034;SDS011;12242;50.952;4.678;2022-10-16T06:59:35;2.95;;;0.90;;
24034;SDS011;12242;50.952;4.678;2022-10-16T07:02:03;3.70;;;1.05;;
24034;SDS011;12242;50.952;4.678;2022-10-16T07:04:33;2.40;;;0.90;;
24034;SDS011;12242;50.952;4.678;2022-10-16T07:07:03;4.05;;;0.70;;
24034;SDS011;12242;50.952;4.678;2022-10-16T07:09:34;2.45;;;0.80;;
24034;SDS011;12242;50.952;4.678;2022-10-16T07:12:02;2.90;;;0.82;;
24034;SDS011;12242;50.952;4.678;2022-10-16T07:14:30;1.77;;;0.77;;
24034;SDS011;12242;50.952;4.678;2022-10-16T07:17:00;2.22;;;0.90;;
24034;SDS011;12242;50.952;4.678;2022-10-16T07:19:27;4.40;;;1.10;;
24034;SDS011;12242;50.952;4.678;2022-10-16T07:22:02;3.53;;;1.00;;
24034;SDS011;12242;50.952;4.678;2022-10-16T07:24:30;1.95;;;0.82;;
24034;SDS011;12242;50.952;4.678;2022-10-16T07:27:00;3.10;;;0.70;;
24034;SDS011;12242;50.952;4.678;2022-10-16T07:29:27;2.63;;;0.90;;
24034;SDS011;12242;50.952;4.678;2022-10-16T07:31:57;2.25;;;0.60;;
24034;SDS011;12242;50.952;4.678;2022-10-16T07:34:27;3.42;;;0.73;;
24034;SDS011;12242;50.952;4.678;2022-10-16T07:36:57;5.65;;;0.75;;
24034;SDS011;12242;50.952;4.678;2022-10-16T07:39:24;4.38;;;0.98;;
24034;SDS011;12242;50.952;4.678;2022-10-16T07:41:54;3.45;;;0.90;;
24034;SDS011;12242;50.952;4.678;2022-10-16T07:44:21;1.45;;;0.70;;
24034;SDS011;12242;50.952;4.678;2022-10-16T07:46:48;2.83;;;0.90;;
24034;SDS011;12242;50.952;4.678;2022-10-16T07:49:16;5.88;;;1.15;;
24034;SDS011;12242;50.952;4.678;2022-10-16T07:51:43;2.08;;;0.80;;
24034;SDS011;12242;50.952;4.678;2022-10-16T07:54:11;1.80;;;0.80;;
24034;SDS011;12242;50.952;4.678;2022-10-16T07:56:39;4.32;;;0.80;;
24034;SDS011;12242;50.952;4.678;2022-10-16T07:59:09;5.38;;;0.90;;
24034;SDS011;12242;50.952;4.678;2022-10-16T08:01:37;2.42;;;0.98;;
24034;SDS011;12242;50.952;4.678;2022-10-16T08:04:05;5.80;;;0.82;;
24034;SDS011;12242;50.952;4.678;2022-10-16T08:06:36;1.63;;;0.70;;
24034;SDS011;12242;50.952;4.678;2022-10-16T08:09:07;4.47;;;0.93;;
24034;SDS011;12242;50.952;4.678;2022-10-16T08:11:35;3.13;;;0.75;;
24034;SDS011;12242;50.952;4.678;2022-10-16T08:14:05;3.13;;;1.05;;
24034;SDS011;12242;50.952;4.678;2022-10-16T08:16:32;1.35;;;0.63;;
24034;SDS011;12242;50.952;4.678;2022-10-16T08:19:03;2.53;;;0.80;;
24034;SDS011;12242;50.952;4.678;2022-10-16T08:21:30;3.17;;;0.95;;
24034;SDS011;12242;50.952;4.678;2022-10-16T08:23:58;4.75;;;0.80;;
24034;SDS011;12242;50.952;4.678;2022-10-16T08:26:28;2.08;;;0.70;;
24034;SDS011;12242;50.952;4.678;2022-10-16T08:28:55;1.05;;;0.50;;
24034;SDS011;12242;50.952;4.678;2022-10-16T08:31:25;3.10;;;0.68;;
24034;SDS011;12242;50.952;4.678;2022-10-16T08:33:54;2.80;;;0.60;;
24034;SDS011;12242;50.952;4.678;2022-10-16T08:36:21;3.10;;;0.55;;
24034;SDS011;12242;50.952;4.678;2022-10-16T08:38:49;1.40;;;0.30;;
24034;SDS011;12242;50.952;4.678;2022-10-16T08:41:28;3.67;;;0.70;;
24034;SDS011;12242;50.952;4.678;2022-10-16T08:49:59;3.72;;;0.70;;
24034;SDS011;12242;50.952;4.678;2022-10-16T08:52:35;2.00;;;0.70;;
24034;SDS011;12242;50.952;4.678;2022-10-16T08:55:11;2.47;;;0.50;;
24034;SDS011;12242;50.952;4.678;2022-10-16T08:57:54;5.88;;;0.60;;
24034;SDS011;12242;50.952;4.678;2022-10-16T09:00:22;4.75;;;0.50;;
24034;SDS011;12242;50.952;4.678;2022-10-16T09:05:57;1.73;;;0.70;;
24034;SDS011;12242;50.952;4.678;2022-10-16T09:11:19;1.20;;;0.50;;
24034;SDS011;12242;50.952;4.678;2022-10-16T09:16:39;4.65;;;0.47;;
24034;SDS011;12242;50.952;4.678;2022-10-16T09:19:32;4.15;;;0.40;;
24034;SDS011;12242;50.952;4.678;2022-10-16T09:22:12;1.65;;;0.47;;
24034;SDS011;12242;50.952;4.678;2022-10-16T09:24:42;4.88;;;0.60;;
24034;SDS011;12242;50.952;4.678;2022-10-16T09:27:11;2.70;;;0.60;;
24034;SDS011;12242;50.952;4.678;2022-10-16T09:29:40;1.23;;;0.45;;
24034;SDS011;12242;50.952;4.678;2022-10-16T09:32:10;1.63;;;0.55;;
24034;SDS011;12242;50.952;4.678;2022-10-16T09:34:45;4.57;;;0.55;;
24034;SDS011;12242;50.952;4.678;2022-10-16T09:37:19;2.67;;;0.90;;
24034;SDS011;12242;50.952;4.678;2022-10-16T09:39:53;2.15;;;0.57;;
24034;SDS011;12242;50.952;4.678;2022-10-16T09:42:34;2.88;;;0.40;;
24034;SDS011;12242;50.952;4.678;2022-10-16T09:45:04;1.60;;;0.35;;
24034;SDS011;12242;50.952;4.678;2022-10-16T09:47:32;3.20;;;0.57;;
24034;SDS011;12242;50.952;4.678;2022-10-16T09:50:25;4.20;;;0.70;;
24034;SDS011;12242;50.952;4.678;2022-10-16T09:56:06;1.67;;;0.60;;
24034;SDS011;12242;50.952;4.678;2022-10-16T09:58:41;3.97;;;0.70;;
24034;SDS011;12242;50.952;4.678;2022-10-16T10:01:12;1.23;;;0.50;;
24034;SDS011;12242;50.952;4.678;2022-10-16T10:03:44;2.30;;;0.60;;
24034;SDS011;12242;50.952;4.678;2022-10-16T10:06:17;4.22;;;0.80;;
24034;SDS011;12242;50.952;4.678;2022-10-16T10:09:02;2.00;;;0.57;;
24034;SDS011;12242;50.952;4.678;2022-10-16T10:11:43;3.50;;;0.70;;
24034;SDS011;12242;50.952;4.678;2022-10-16T10:14:18;2.72;;;0.45;;
24034;SDS011;12242;50.952;4.678;2022-10-16T10:17:08;3.78;;;0.50;;
24034;SDS011;12242;50.952;4.678;2022-10-16T10:19:39;2.33;;;0.50;;
24034;SDS011;12242;50.952;4.678;2022-10-16T10:22:26;1.63;;;0.60;;
24034;SDS011;12242;50.952;4.678;2022-10-16T10:38:56;3.40;;;0.50;;
24034;SDS011;12242;50.952;4.678;2022-10-16T10:44:19;5.03;;;0.60;;
24034;SDS011;12242;50.952;4.678;2022-10-16T11:12:31;1.83;;;0.50;;
24034;SDS011;12242;50.952;4.678;2022-10-16T11:15:04;2.13;;;0.50;;
24034;SDS011;12242;50.952;4.678;2022-10-16T11:17:42;3.28;;;0.60;;
24034;SDS011;12242;50.952;4.678;2022-10-16T11:20:42;1.95;;;0.32;;
24034;SDS011;12242;50.952;4.678;2022-10-16T11:23:20;3.20;;;0.50;;
24034;SDS011;12242;50.952;4.678;2022-10-16T11:25:54;2.20;;;0.30;;
24034;SDS011;12242;50.952;4.678;2022-10-16T11:28:31;2.75;;;0.40;;
24034;SDS011;12242;50.952;4.678;2022-10-16T11:31:22;2.78;;;0.50;;
24034;SDS011;12242;50.952;4.678;2022-10-16T11:37:08;2.83;;;0.40;;
24034;SDS011;12242;50.952;4.678;2022-10-16T11:39:46;3.08;;;0.68;;
24034;SDS011;12242;50.952;4.678;2022-10-16T11:42:21;1.65;;;0.50;;
24034;SDS011;12242;50.952;4.678;2022-10-16T11:48:08;2.10;;;0.40;;
24034;SDS011;12242;50.952;4.678;2022-10-16T11:50:56;2.80;;;0.60;;
24034;SDS011;12242;50.952;4.678;2022-10-16T11:53:39;0.95;;;0.50;;
24034;SDS011;12242;50.952;4.678;2022-10-16T11:56:32;1.05;;;0.47;;
24034;SDS011;12242;50.952;4.678;2022-10-16T12:08:12;2.25;;;0.50;;
24034;SDS011;12242;50.952;4.678;2022-10-16T12:10:44;2.65;;;0.60;;
24034;SDS011;12242;50.952;4.678;2022-10-16T12:13:33;1.63;;;0.38;;
24034;SDS011;12242;50.952;4.678;2022-10-16T12:16:06;1.55;;;0.40;;
24034;SDS011;12242;50.952;4.678;2022-10-16T12:18:43;2.60;;;0.60;;
24034;SDS011;12242;50.952;4.678;2022-10-16T12:21:12;1.85;;;0.40;;
24034;SDS011;12242;50.952;4.678;2022-10-16T12:23:50;4.20;;;0.63;;
24034;SDS011;12242;50.952;4.678;2022-10-16T12:26:29;0.95;;;0.35;;
24034;SDS011;12242;50.952;4.678;2022-10-16T12:29:12;2.38;;;0.43;;
24034;SDS011;12242;50.952;4.678;2022-10-16T12:31:44;1.15;;;0.40;;
24034;SDS011;12242;50.952;4.678;2022-10-16T12:34:26;3.78;;;0.60;;
24034;SDS011;12242;50.952;4.678;2022-10-16T12:37:07;1.40;;;0.38;;
24034;SDS011;12242;50.952;4.678;2022-10-16T12:39:37;3.50;;;0.30;;
24034;SDS011;12242;50.952;4.678;2022-10-16T12:42:17;2.35;;;0.43;;
24034;SDS011;12242;50.952;4.678;2022-10-16T12:44:52;3.75;;;0.50;;
24034;SDS011;12242;50.952;4.678;2022-10-16T12:47:22;2.55;;;0.50;;
24034;SDS011;12242;50.952;4.678;2022-10-16T12:49:55;5.40;;;0.55;;
24034;SDS011;12242;50.952;4.678;2022-10-16T12:55:05;1.80;;;0.50;;
24034;SDS011;12242;50.952;4.678;2022-10-16T13:00:35;2.42;;;0.52;;
24034;SDS011;12242;50.952;4.678;2022-10-16T13:06:14;1.40;;;0.40;;
24034;SDS011;12242;50.952;4.678;2022-10-16T13:20:03;1.65;;;0.68;;
24034;SDS011;12242;50.952;4.678;2022-10-16T13:25:41;0.85;;;0.35;;
24034;SDS011;12242;50.952;4.678;2022-10-16T13:28:28;2.05;;;0.45;;
24034;SDS011;12242;50.952;4.678;2022-10-16T13:30:59;3.65;;;0.52;;
24034;SDS011;12242;50.952;4.678;2022-10-16T13:36:06;2.30;;;0.50;;
24034;SDS011;12242;50.952;4.678;2022-10-16T13:38:46;0.50;;;0.30;;
24034;SDS011;12242;50.952;4.678;2022-10-16T13:41:15;2.05;;;0.63;;
24034;SDS011;12242;50.952;4.678;2022-10-16T13:43:51;1.25;;;0.50;;
24034;SDS011;12242;50.952;4.678;2022-10-16T13:46:23;1.70;;;0.32;;
24034;SDS011;12242;50.952;4.678;2022-10-16T13:49:04;1.63;;;0.20;;
24034;SDS011;12242;50.952;4.678;2022-10-16T13:51:53;1.83;;;0.45;;
24034;SDS011;12242;50.952;4.678;2022-10-16T13:54:23;1.08;;;0.30;;
24034;SDS011;12242;50.952;4.678;2022-10-16T13:56:52;2.90;;;0.68;;
24034;SDS011;12242;50.952;4.678;2022-10-16T13:59:35;3.17;;;0.40;;
24034;SDS011;12242;50.952;4.678;2022-10-16T14:05:02;2.38;;;0.60;;
24034;SDS011;12242;50.952;4.678;2022-10-16T14:07:35;4.28;;;0.60;;
24034;SDS011;12242;50.952;4.678;2022-10-16T14:10:06;1.02;;;0.40;;
24034;SDS011;12242;50.952;4.678;2022-10-16T14:12:53;3.22;;;0.32;;
24034;SDS011;12242;50.952;4.678;2022-10-16T14:15:34;2.30;;;0.40;;
24034;SDS011;12242;50.952;4.678;2022-10-16T14:18:05;3.10;;;0.60;;
24034;SDS011;12242;50.952;4.678;2022-10-16T14:20:33;3.38;;;0.60;;
24034;SDS011;12242;50.952;4.678;2022-10-16T14:23:03;2.47;;;0.40;;
24034;SDS011;12242;50.952;4.678;2022-10-16T14:25:46;1.33;;;0.40;;
24034;SDS011;12242;50.952;4.678;2022-10-16T14:28:18;3.33;;;0.57;;
24034;SDS011;12242;50.952;4.678;2022-10-16T14:30:59;3.25;;;0.63;;
24034;SDS011;12242;50.952;4.678;2022-10-16T14:36:13;1.88;;;0.60;;
24034;SDS011;12242;50.952;4.678;2022-10-16T14:38:43;6.07;;;0.70;;
24034;SDS011;12242;50.952;4.678;2022-10-16T14:41:24;2.42;;;0.40;;
24034;SDS011;12242;50.952;4.678;2022-10-16T14:43:53;2.15;;;0.40;;
24034;SDS011;12242;50.952;4.678;2022-10-16T14:46:23;0.70;;;0.30;;
24034;SDS011;12242;50.952;4.678;2022-10-16T14:49:13;2.45;;;0.50;;
24034;SDS011;12242;50.952;4.678;2022-10-16T14:51:44;3.47;;;0.57;;
24034;SDS011;12242;50.952;4.678;2022-10-16T14:54:13;2.58;;;0.40;;
24034;SDS011;12242;50.952;4.678;2022-10-16T14:56:49;2.13;;;0.60;;
24034;SDS011;12242;50.952;4.678;2022-10-16T15:04:47;1.33;;;0.45;;
24034;SDS011;12242;50.952;4.678;2022-10-16T15:07:16;1.13;;;0.55;;
24034;SDS011;12242;50.952;4.678;2022-10-16T15:09:43;2.78;;;0.50;;
24034;SDS011;12242;50.952;4.678;2022-10-16T15:12:15;2.88;;;0.38;;
24034;SDS011;12242;50.952;4.678;2022-10-16T15:14:46;1.52;;;0.57;;
24034;SDS011;12242;50.952;4.678;2022-10-16T15:17:13;2.33;;;0.60;;
24034;SDS011;12242;50.952;4.678;2022-10-16T15:19:45;4.68;;;0.90;;
24034;SDS011;12242;50.952;4.678;2022-10-16T15:22:15;2.63;;;0.60;;
24034;SDS011;12242;50.952;4.678;2022-10-16T15:24:42;2.97;;;0.60;;
24034;SDS011;12242;50.952;4.678;2022-10-16T15:27:10;1.58;;;0.50;;
24034;SDS011;12242;50.952;4.678;2022-10-16T15:29:42;0.70;;;0.40;;
24034;SDS011;12242;50.952;4.678;2022-10-16T15:32:11;3.92;;;0.75;;
24034;SDS011;12242;50.952;4.678;2022-10-16T15:34:38;4.20;;;0.73;;
24034;SDS011;12242;50.952;4.678;2022-10-16T15:37:08;1.20;;;0.50;;
24034;SDS011;12242;50.952;4.678;2022-10-16T15:39:36;2.80;;;0.40;;
24034;SDS011;12242;50.952;4.678;2022-10-16T15:42:07;3.80;;;0.65;;
24034;SDS011;12242;50.952;4.678;2022-10-16T15:44:37;3.53;;;0.60;;
24034;SDS011;12242;50.952;4.678;2022-10-16T15:47:07;1.85;;;0.60;;
24034;SDS011;12242;50.952;4.678;2022-10-16T15:49:38;1.20;;;0.57;;
24034;SDS011;12242;50.952;4.678;2022-10-16T15:52:06;2.95;;;0.60;;
24034;SDS011;12242;50.952;4.678;2022-10-16T15:54:33;4.15;;;0.50;;
24034;SDS011;12242;50.952;4.678;2022-10-16T15:57:03;3.00;;;0.60;;
24034;SDS011;12242;50.952;4.678;2022-10-16T15:59:31;2.70;;;0.70;;
24034;SDS011;12242;50.952;4.678;2022-10-16T16:02:03;3.35;;;0.57;;
24034;SDS011;12242;50.952;4.678;2022-10-16T16:04:33;3.63;;;0.75;;
24034;SDS011;12242;50.952;4.678;2022-10-16T16:07:15;3.05;;;0.85;;
24034;SDS011;12242;50.952;4.678;2022-10-16T16:09:43;3.50;;;0.77;;
24034;SDS011;12242;50.952;4.678;2022-10-16T16:12:11;3.17;;;0.50;;
24034;SDS011;12242;50.952;4.678;2022-10-16T16:14:39;4.10;;;0.60;;
24034;SDS011;12242;50.952;4.678;2022-10-16T16:17:07;6.35;;;0.80;;
24034;SDS011;12242;50.952;4.678;2022-10-16T16:19:40;2.15;;;0.60;;
24034;SDS011;12242;50.952;4.678;2022-10-16T16:22:10;4.82;;;1.00;;
24034;SDS011;12242;50.952;4.678;2022-10-16T16:24:40;2.72;;;0.60;;
24034;SDS011;12242;50.952;4.678;2022-10-16T16:27:09;2.38;;;0.68;;
24034;SDS011;12242;50.952;4.678;2022-10-16T16:29:37;2.88;;;0.60;;
24034;SDS011;12242;50.952;4.678;2022-10-16T16:32:04;4.25;;;0.80;;
24034;SDS011;12242;50.952;4.678;2022-10-16T16:34:35;3.67;;;0.75;;
24034;SDS011;12242;50.952;4.678;2022-10-16T16:37:02;2.25;;;0.63;;
24034;SDS011;12242;50.952;4.678;2022-10-16T16:39:30;4.22;;;0.98;;
24034;SDS011;12242;50.952;4.678;2022-10-16T16:41:57;2.42;;;0.60;;
24034;SDS011;12242;50.952;4.678;2022-10-16T16:44:29;2.03;;;0.80;;
24034;SDS011;12242;50.952;4.678;2022-10-16T16:46:57;1.52;;;0.63;;
24034;SDS011;12242;50.952;4.678;2022-10-16T16:49:26;3.75;;;1.00;;
24034;SDS011;12242;50.952;4.678;2022-10-16T16:51:56;5.95;;;1.48;;
24034;SDS011;12242;50.952;4.678;2022-10-16T16:54:24;4.10;;;1.40;;
24034;SDS011;12242;50.952;4.678;2022-10-16T16:56:52;7.35;;;1.40;;
24034;SDS011;12242;50.952;4.678;2022-10-16T16:59:22;4.97;;;0.98;;
24034;SDS011;12242;50.952;4.678;2022-10-16T17:01:49;2.28;;;0.88;;
24034;SDS011;12242;50.952;4.678;2022-10-16T17:04:22;3.10;;;0.90;;
24034;SDS011;12242;50.952;4.678;2022-10-16T17:06:52;3.00;;;0.98;;
24034;SDS011;12242;50.952;4.678;2022-10-16T17:09:23;3.42;;;1.10;;
24034;SDS011;12242;50.952;4.678;2022-10-16T17:11:51;5.20;;;1.38;;
24034;SDS011;12242;50.952;4.678;2022-10-16T17:14:18;3.78;;;1.13;;
24034;SDS011;12242;50.952;4.678;2022-10-16T17:16:45;4.63;;;1.63;;
24034;SDS011;12242;50.952;4.678;2022-10-16T17:19:15;6.10;;;1.77;;
24034;SDS011;12242;50.952;4.678;2022-10-16T17:21:47;5.35;;;2.28;;